METAR AND TAF INFORMATION
METAR FOR EKRK
ADDS - METARS form results

(2301 UTC 25 July 2021)
Data provider http://aviationweather.gov/metar/data/
 
METAR text: EKRK 252250Z AUTO 09008KT 060V120 9999 OVC130/// 20/17 Q1013
Conditions at: EKRK (COPENHAGEN/ROSKI, DK) observed 2250 UTC 25 July 2021
Temperature: 20.0°C (68°F)
Dewpoint: 17.0°C (63°F) [RH = 83%]
Pressure (altimeter): 29.91 inches Hg (1013.0 mb)
Winds: from the E (90 degrees) at 9 MPH (8 knots; 4.1 m/s)
Visibility: 6 or more miles (10+ km)
Ceiling: 13000 feet AGL
Clouds: overcast cloud deck at 13000 feet AGL
Weather: no significant weather observed at this time

METAR text: EKRK 252220Z AUTO 09009KT 9999 BKN130/// 20/17 Q1013
Conditions at: EKRK (COPENHAGEN/ROSKI, DK) observed 2220 UTC 25 July 2021
Temperature: 20.0°C (68°F)
Dewpoint: 17.0°C (63°F) [RH = 83%]
Pressure (altimeter): 29.91 inches Hg (1013.0 mb)
Winds: from the E (90 degrees) at 10 MPH (9 knots; 4.6 m/s)
Visibility: 6 or more miles (10+ km)
Ceiling: 13000 feet AGL
Clouds: broken clouds at 13000 feet AGL
Weather: no significant weather observed at this time

Forecast for: EKRK (COPENHAGEN/ROSKI, DK)
Text: TAF EKRK 251923Z 2521/2606 10010KT CAVOK
Forecast period: 2100 UTC 25 July 2021 to 0600 UTC 26 July 2021
Forecast type: FROM: standard forecast or significant change
Winds: from the E (100 degrees) at 12 MPH (10 knots; 5.1 m/s)
Visibility: 6 or more miles (10+ km)
Ceiling: unknown
Clouds: missing
Weather: NSW  (no significant weather)

 AIRPORT MAP

 RUNWAY INFORMATION
Runway 03 Runway length 4921 ft Runway width 105 ft
Runway elevation 127 ft Runway displaced threshold 0 ft Runway heading 31
Runway 21 Runway length 4921 ft Runway width 105 ft
Runway elevation 146 ft Runway displaced threshold 0 ft Runway heading 211
Runway 11 Runway length 5709 ft Runway width 105 ft
Runway elevation 145 ft Runway displaced threshold 0 ft Runway heading 116
Runway 29 Runway length 5709 ft Runway width 105 ft
Runway elevation 138 ft Runway displaced threshold 193 ft Runway heading 296

 AIRPORT FREQUENCIES
Type APP Name APP Frequency 125.525 MHZ
Type ATIS Name ATIS Frequency 123.8 MHZ
Type MISC Name HANDLING Frequency 130.225 MHZ
Type TWR Name TWR Frequency 118.9 MHZ
Type TWR Name Frequency 119.65 MHZ

 AIRPORT NEAR NAVIGATION AIDS
Type NDB Name Roskilde Frequency 368 KHZ



Powered by Virtual Airlines Manager [v2.6.2]